Time;durP1;ratioP1;P1;durP2;ratioP2;P2;SDS_P1;SDS_P2;PMS_P1;PMS_P2;Temp;Humidity;BMP_temperature;BMP_pressure;BME280_temperature;BME280_humidity;BME280_pressure;Samples;Min_cycle;Max_cycle;Signal;HPM_P1;HPM_P2
2022/09/17 00:01:06;;;;;;;15.45;2.65;;;12.40;99.90;;;;;;5113085;27;37215;-61
2022/09/17 00:03:34;;;;;;;14.23;2.47;;;12.40;99.90;;;;;;5112986;27;36349;-60
2022/09/17 00:06:04;;;;;;;16.08;3.17;;;12.40;99.90;;;;;;5112015;27;38264;-61
2022/09/17 00:08:34;;;;;;;11.18;2.38;;;12.50;99.90;;;;;;5113744;27;37845;-60
2022/09/17 00:11:07;;;;;;;12.82;2.00;;;12.50;99.90;;;;;;5113289;27;37565;-61
2022/09/17 00:13:35;;;;;;;17.02;2.80;;;12.50;99.90;;;;;;5112914;27;38339;-60
2022/09/17 00:16:02;;;;;;;13.18;2.72;;;12.60;99.90;;;;;;5113389;27;36834;-61
2022/09/17 00:18:30;;;;;;;17.40;2.97;;;12.50;99.90;;;;;;5113826;27;38033;-60
2022/09/17 00:20:57;;;;;;;12.25;2.08;;;12.60;99.90;;;;;;5111861;27;36247;-61
2022/09/17 00:23:25;;;;;;;12.68;2.10;;;12.50;99.90;;;;;;5113029;27;36222;-61
2022/09/17 00:25:53;;;;;;;15.85;3.17;;;12.60;99.90;;;;;;5112978;27;38465;-61
2022/09/17 00:28:20;;;;;;;14.27;2.50;;;12.60;99.90;;;;;;5113436;27;38282;-60
2022/09/17 00:30:48;;;;;;;11.65;1.98;;;12.60;99.90;;;;;;5113328;27;36613;-60
2022/09/17 00:33:18;;;;;;;12.38;2.45;;;12.60;99.90;;;;;;5113173;27;35346;-60
2022/09/17 00:35:58;;;;;;;14.35;2.13;;;12.60;99.90;;;;;;5112803;27;39150;-61
2022/09/17 00:38:25;;;;;;;12.73;2.05;;;12.50;99.90;;;;;;5113520;27;38546;-60
2022/09/17 00:40:54;;;;;;;10.50;2.40;;;12.50;99.90;;;;;;5113485;27;36472;-61
2022/09/17 00:43:36;;;;;;;12.40;2.15;;;12.50;99.90;;;;;;5112776;27;37677;-61
2022/09/17 00:46:04;;;;;;;11.65;1.60;;;12.40;99.90;;;;;;5112962;27;38926;-61
2022/09/17 00:48:32;;;;;;;11.35;1.90;;;12.40;99.90;;;;;;5111751;27;37888;-60
2022/09/17 00:51:01;;;;;;;10.55;1.80;;;12.40;99.90;;;;;;5112293;27;35121;-61
2022/09/17 00:53:29;;;;;;;10.77;2.33;;;12.40;99.90;;;;;;5112796;27;37560;-61
2022/09/17 00:56:02;;;;;;;12.82;2.60;;;12.30;99.90;;;;;;5111726;27;38027;-61
2022/09/17 00:58:32;;;;;;;16.23;2.53;;;12.30;99.90;;;;;;5111445;27;38510;-61
2022/09/17 01:00:59;;;;;;;11.45;2.10;;;12.30;99.90;;;;;;5108472;27;37327;-61
2022/09/17 01:03:27;;;;;;;9.48;2.40;;;12.20;99.90;;;;;;5111289;27;37816;-61
2022/09/17 01:06:04;;;;;;;16.45;2.50;;;12.20;99.90;;;;;;5110416;27;36951;-60
2022/09/17 01:08:41;;;;;;;15.13;2.30;;;12.20;99.90;;;;;;5111508;27;38814;-61
2022/09/17 01:11:22;;;;;;;12.43;2.10;;;12.10;99.90;;;;;;5112695;27;36387;-61
2022/09/17 01:14:01;;;;;;;12.38;2.33;;;12.10;99.90;;;;;;5112423;27;37543;-61
2022/09/17 01:16:36;;;;;;;15.13;2.50;;;12.10;99.90;;;;;;5111197;27;37405;-60
2022/09/17 01:19:28;;;;;;;13.30;2.22;;;12.00;99.90;;;;;;5111030;27;37800;-61
2022/09/17 01:22:03;;;;;;;11.45;2.42;;;12.00;99.90;;;;;;5112663;27;38563;-61
2022/09/17 01:24:48;;;;;;;8.68;1.88;;;12.00;99.90;;;;;;5112233;27;39182;-60
2022/09/17 01:28:01;;;;;;;14.68;2.22;;;12.10;99.90;;;;;;5112540;27;38286;-60
2022/09/17 01:30:54;;;;;;;9.38;1.85;;;12.10;99.90;;;;;;5112538;27;37567;-61
2022/09/17 01:33:29;;;;;;;14.73;2.38;;;12.10;99.90;;;;;;5111591;27;37383;-61
2022/09/17 01:36:06;;;;;;;10.38;1.90;;;12.10;99.90;;;;;;5112542;27;36260;-60
2022/09/17 01:38:40;;;;;;;10.82;2.00;;;12.10;99.90;;;;;;5112229;27;37999;-61
2022/09/17 01:41:17;;;;;;;17.05;2.58;;;12.10;99.90;;;;;;5112167;27;40621;-60
2022/09/17 01:43:51;;;;;;;8.57;1.77;;;12.10;99.90;;;;;;5112258;27;36883;-61
2022/09/17 01:46:24;;;;;;;12.27;2.28;;;12.10;99.90;;;;;;5111281;27;38039;-61
2022/09/17 01:48:58;;;;;;;11.25;2.25;;;12.20;99.90;;;;;;5110723;27;40856;-61
2022/09/17 01:51:29;;;;;;;16.77;2.47;;;12.10;99.90;;;;;;5111386;27;37981;-61
2022/09/17 01:54:03;;;;;;;10.57;2.05;;;12.10;99.90;;;;;;5111610;27;36742;-61
2022/09/17 01:56:36;;;;;;;13.90;3.03;;;12.10;99.90;;;;;;5111845;27;37464;-60
2022/09/17 01:59:07;;;;;;;17.95;2.20;;;12.10;99.90;;;;;;5111474;27;38760;-60
2022/09/17 02:01:39;;;;;;;14.30;2.10;;;12.20;99.90;;;;;;5110547;27;37798;-60
2022/09/17 02:04:09;;;;;;;14.55;2.80;;;12.20;99.90;;;;;;5111951;27;36617;-61
2022/09/17 02:06:40;;;;;;;8.80;1.63;;;12.20;99.90;;;;;;5111147;27;38190;-60
2022/09/17 02:09:12;;;;;;;18.77;3.88;;;12.20;99.90;;;;;;5109991;27;39003;-60
2022/09/17 02:11:43;;;;;;;11.82;2.40;;;12.20;99.90;;;;;;5112450;27;38040;-61
2022/09/17 02:14:13;;;;;;;12.30;1.98;;;12.10;99.90;;;;;;5114148;27;35290;-61
2022/09/17 02:16:47;;;;;;;13.00;2.88;;;12.10;99.90;;;;;;5113588;27;37532;-61
2022/09/17 02:19:18;;;;;;;8.95;2.30;;;12.10;99.90;;;;;;5114633;27;38817;-60
2022/09/17 02:21:50;;;;;;;10.52;1.70;;;12.10;99.90;;;;;;5114646;27;38384;-60
2022/09/17 02:24:23;;;;;;;13.30;2.40;;;12.10;99.90;;;;;;5114332;27;36850;-61
2022/09/17 02:26:56;;;;;;;6.40;1.10;;;12.10;99.90;;;;;;5115388;27;38163;-61
2022/09/17 02:29:30;;;;;;;5.35;1.00;;;12.10;99.90;;;;;;5115154;27;39158;-60
2022/09/17 02:32:00;;;;;;;6.15;1.30;;;12.10;99.90;;;;;;5113677;27;37587;-60
2022/09/17 02:34:28;;;;;;;13.18;1.80;;;12.00;99.90;;;;;;5114537;27;36757;-60
2022/09/17 02:36:57;;;;;;;8.68;2.45;;;12.00;99.90;;;;;;5115272;27;39135;-60
2022/09/17 02:39:24;;;;;;;9.32;1.55;;;12.00;99.90;;;;;;5114173;27;36911;-60
2022/09/17 02:41:58;;;;;;;11.65;2.85;;;12.00;99.90;;;;;;5115169;27;38665;-61
2022/09/17 02:44:31;;;;;;;;;;;12.00;99.90;;;;;;5114246;27;36337;-61
2022/09/17 02:47:44;;;;;;;10.55;1.55;;;11.90;99.90;;;;;;5114364;27;41329;-61
2022/09/17 02:50:21;;;;;;;13.18;1.90;;;11.90;99.90;;;;;;5085455;27;38915;-61
2022/09/17 02:53:00;;;;;;;12.98;1.83;;;11.90;99.90;;;;;;5114173;27;39117;-61
2022/09/17 02:55:36;;;;;;;12.25;1.63;;;11.80;99.90;;;;;;5114443;27;36501;-60
2022/09/17 02:58:14;;;;;;;12.85;2.13;;;11.80;99.90;;;;;;5114306;27;37396;-61
2022/09/17 03:00:42;;;;;;;11.10;1.70;;;11.80;99.90;;;;;;5113980;27;38661;-60
2022/09/17 03:03:17;;;;;;;10.05;1.85;;;11.80;99.90;;;;;;5114282;27;36711;-60
2022/09/17 03:05:45;;;;;;;13.75;2.13;;;11.70;99.90;;;;;;5114111;27;36950;-61
2022/09/17 03:08:14;;;;;;;12.27;2.10;;;11.70;99.90;;;;;;5114180;27;36248;-60
2022/09/17 03:10:42;;;;;;;12.75;2.65;;;11.70;99.90;;;;;;5114490;27;40247;-60
2022/09/17 03:13:09;;;;;;;15.00;2.35;;;11.70;99.90;;;;;;5113282;27;36518;-61
2022/09/17 03:15:36;;;;;;;12.15;2.25;;;11.70;99.90;;;;;;5113527;27;36925;-61
2022/09/17 03:18:03;;;;;;;13.63;2.13;;;11.70;99.90;;;;;;5114765;27;37500;-61
2022/09/17 03:20:32;;;;;;;15.93;3.40;;;11.70;99.90;;;;;;5114754;27;38415;-61
2022/09/17 03:22:59;;;;;;;15.15;2.30;;;11.60;99.90;;;;;;5114513;27;36637;-60
2022/09/17 03:25:27;;;;;;;12.20;1.83;;;11.60;99.90;;;;;;5113659;27;36507;-60
2022/09/17 03:27:54;;;;;;;11.30;2.15;;;11.60;99.90;;;;;;5113311;27;36289;-60
2022/09/17 03:30:21;;;;;;;8.40;1.38;;;11.60;99.90;;;;;;5114036;27;38277;-60
2022/09/17 03:32:49;;;;;;;14.05;1.88;;;11.70;99.90;;;;;;5113427;27;38245;-60
2022/09/17 03:35:16;;;;;;;10.75;2.55;;;11.70;99.90;;;;;;5114116;27;35305;-61
2022/09/17 03:37:46;;;;;;;9.57;1.60;;;11.70;99.90;;;;;;5113255;27;37522;-60
2022/09/17 03:40:13;;;;;;;13.90;3.15;;;11.70;99.90;;;;;;5113981;27;38769;-61
2022/09/17 03:42:40;;;;;;;9.55;1.70;;;11.70;99.90;;;;;;5111774;27;38666;-61
2022/09/17 03:45:09;;;;;;;18.02;2.28;;;11.70;99.90;;;;;;5113120;27;36784;-61
2022/09/17 03:47:37;;;;;;;14.05;2.88;;;11.70;99.90;;;;;;5111163;27;37492;-61
2022/09/17 03:50:06;;;;;;;13.77;1.70;;;11.70;99.90;;;;;;5112824;27;36943;-61
2022/09/17 03:52:33;;;;;;;6.40;1.23;;;11.70;99.90;;;;;;5114202;27;38558;-61
2022/09/17 03:55:02;;;;;;;12.13;1.70;;;11.70;99.90;;;;;;5114050;27;36609;-61
2022/09/17 03:57:30;;;;;;;7.07;1.45;;;11.70;99.90;;;;;;5113778;27;36474;-61
2022/09/17 03:59:57;;;;;;;11.93;2.33;;;11.60;99.90;;;;;;5113310;27;39110;-60
2022/09/17 04:02:24;;;;;;;10.98;1.85;;;11.60;99.90;;;;;;5112978;27;39571;-61
2022/09/17 04:04:52;;;;;;;13.70;1.70;;;11.60;99.90;;;;;;5113765;27;36793;-61
2022/09/17 04:07:20;;;;;;;11.95;2.33;;;11.50;99.90;;;;;;5113579;27;37424;-60
2022/09/17 04:09:47;;;;;;;11.88;2.30;;;11.50;99.90;;;;;;5113327;27;38756;-61
2022/09/17 04:12:17;;;;;;;11.75;2.50;;;11.60;99.90;;;;;;5113168;27;38293;-60
2022/09/17 04:14:44;;;;;;;19.05;2.58;;;11.50;99.90;;;;;;5113270;27;36998;-61
2022/09/17 04:17:16;;;;;;;10.48;2.17;;;11.50;99.90;;;;;;5112081;27;36289;-60
2022/09/17 04:19:44;;;;;;;15.68;2.47;;;11.50;99.90;;;;;;5113140;27;38671;-60
2022/09/17 04:22:11;;;;;;;8.50;1.63;;;11.40;99.90;;;;;;5113287;27;36463;-60
2022/09/17 04:24:38;;;;;;;9.45;2.08;;;11.40;99.90;;;;;;5113012;27;36361;-61
2022/09/17 04:27:06;;;;;;;12.02;2.05;;;11.40;99.90;;;;;;5113139;27;36359;-61
2022/09/17 04:29:34;;;;;;;13.63;2.15;;;11.40;99.90;;;;;;5113110;27;38293;-61
2022/09/17 04:32:02;;;;;;;14.68;2.97;;;11.40;99.90;;;;;;5112832;27;38879;-61
2022/09/17 04:34:30;;;;;;;9.95;1.80;;;11.40;99.90;;;;;;5112701;27;37844;-60
2022/09/17 04:36:58;;;;;;;10.35;1.90;;;11.40;99.90;;;;;;5112596;27;38338;-61
2022/09/17 04:39:25;;;;;;;10.38;1.90;;;11.30;99.90;;;;;;5111178;27;36995;-61
2022/09/17 04:41:52;;;;;;;12.88;2.33;;;11.30;99.90;;;;;;5110792;27;37864;-61
2022/09/17 04:44:20;;;;;;;12.00;2.20;;;11.40;99.90;;;;;;5112758;27;36593;-61
2022/09/17 04:46:48;;;;;;;17.75;2.25;;;11.30;99.90;;;;;;5113214;27;36107;-61
2022/09/17 04:49:15;;;;;;;11.40;2.05;;;11.30;99.90;;;;;;5112969;27;36161;-60
2022/09/17 04:51:43;;;;;;;14.57;1.85;;;11.30;99.90;;;;;;5112580;27;38351;-61
2022/09/17 04:54:10;;;;;;;15.75;2.05;;;11.30;99.90;;;;;;5112293;27;36535;-61
2022/09/17 04:56:37;;;;;;;11.80;1.83;;;11.30;99.90;;;;;;5111579;27;37513;-60
2022/09/17 04:59:05;;;;;;;10.32;1.98;;;11.20;99.90;;;;;;5112147;27;38708;-61
2022/09/17 05:01:32;;;;;;;14.55;1.92;;;11.20;99.90;;;;;;5112834;27;38481;-60
2022/09/17 05:04:01;;;;;;;12.20;1.92;;;11.20;99.90;;;;;;5112872;27;36927;-61
2022/09/17 05:06:28;;;;;;;12.05;2.10;;;11.20;99.90;;;;;;5112398;27;37346;-61
2022/09/17 05:08:55;;;;;;;9.00;1.80;;;11.10;99.90;;;;;;5111852;27;38183;-61
2022/09/17 05:11:23;;;;;;;13.23;2.15;;;11.10;99.90;;;;;;5110869;27;37820;-61
2022/09/17 05:13:50;;;;;;;13.40;2.08;;;11.10;99.90;;;;;;5112301;27;37747;-60
2022/09/17 05:16:18;;;;;;;11.65;1.75;;;11.10;99.90;;;;;;5111920;27;37701;-60
2022/09/17 05:18:45;;;;;;;14.70;1.92;;;11.10;99.90;;;;;;5112363;27;39381;-61
2022/09/17 05:21:14;;;;;;;12.52;2.03;;;11.20;99.90;;;;;;5112508;27;38423;-61
2022/09/17 05:23:41;;;;;;;10.57;1.98;;;11.20;99.90;;;;;;5112299;27;36896;-60
2022/09/17 05:26:08;;;;;;;15.57;2.05;;;11.30;99.90;;;;;;5111670;27;37519;-60
2022/09/17 05:28:36;;;;;;;12.20;2.65;;;11.30;99.90;;;;;;5112318;27;38533;-61
2022/09/17 05:31:03;;;;;;;12.02;2.30;;;11.30;99.90;;;;;;5111520;27;38795;-61
2022/09/17 05:33:31;;;;;;;8.50;1.50;;;11.30;99.90;;;;;;5112239;27;37350;-61
2022/09/17 05:35:58;;;;;;;8.75;1.80;;;11.40;99.90;;;;;;5112024;27;37299;-61
2022/09/17 05:38:27;;;;;;;8.98;1.83;;;11.40;99.90;;;;;;5111756;27;38108;-61
2022/09/17 05:40:54;;;;;;;9.93;2.08;;;11.50;99.90;;;;;;5110011;27;37814;-61
2022/09/17 05:43:22;;;;;;;8.00;1.67;;;11.70;99.90;;;;;;5112463;27;36878;-61
2022/09/17 05:45:50;;;;;;;7.82;1.30;;;11.50;99.90;;;;;;5112636;27;38347;-61
2022/09/17 05:48:17;;;;;;;6.03;1.25;;;11.50;99.90;;;;;;5114834;27;37906;-61
2022/09/17 05:50:45;;;;;;;11.60;2.15;;;11.50;99.90;;;;;;5115852;27;37585;-61
2022/09/17 05:53:13;;;;;;;4.40;1.02;;;11.50;99.90;;;;;;5114979;27;36679;-61
2022/09/17 05:55:42;;;;;;;5.75;1.33;;;11.50;99.90;;;;;;5115404;27;38504;-61
2022/09/17 05:58:11;;;;;;;5.85;0.90;;;11.50;99.90;;;;;;5115296;27;38117;-61
2022/09/17 06:00:39;;;;;;;3.70;0.75;;;11.50;99.90;;;;;;5115816;27;37611;-61
2022/09/17 06:03:09;;;;;;;8.13;1.35;;;11.40;99.90;;;;;;5116711;27;22300;-61
2022/09/17 06:05:36;;;;;;;6.85;1.42;;;11.40;99.90;;;;;;5114153;27;37563;-61
2022/09/17 06:08:04;;;;;;;8.18;1.13;;;11.40;99.90;;;;;;5115157;27;37724;-61
2022/09/17 06:10:32;;;;;;;7.30;1.27;;;11.40;99.90;;;;;;5116265;27;36545;-61
2022/09/17 06:13:00;;;;;;;7.10;1.55;;;11.40;99.90;;;;;;5115688;27;37448;-60
2022/09/17 06:15:28;;;;;;;11.02;1.60;;;11.40;99.90;;;;;;5115601;27;38374;-60
2022/09/17 06:17:56;;;;;;;15.10;1.88;;;11.40;99.90;;;;;;5114660;27;38952;-61
2022/09/17 06:20:23;;;;;;;12.05;1.80;;;11.40;99.90;;;;;;5115019;27;37957;-60
2022/09/17 06:22:56;;;;;;;7.47;1.45;;;11.30;99.90;;;;;;5115115;27;35234;-60
2022/09/17 06:25:23;;;;;;;8.32;1.42;;;11.30;99.90;;;;;;5115450;27;37472;-60
2022/09/17 06:27:50;;;;;;;9.43;1.40;;;11.30;99.90;;;;;;5115094;27;36826;-61
2022/09/17 06:30:19;;;;;;;6.00;1.08;;;11.30;99.90;;;;;;5114576;27;38292;-60
2022/09/17 06:32:46;;;;;;;9.10;1.30;;;11.40;99.90;;;;;;5114031;27;36384;-61
2022/09/17 06:35:14;;;;;;;5.90;0.93;;;11.40;99.90;;;;;;5114175;27;37335;-60
2022/09/17 06:37:41;;;;;;;7.28;1.55;;;11.40;99.90;;;;;;5112875;27;38489;-61
2022/09/17 06:40:09;;;;;;;5.85;1.25;;;11.50;99.90;;;;;;5115168;27;37724;-60
2022/09/17 06:42:37;;;;;;;6.50;1.23;;;11.50;99.90;;;;;;5114654;27;36624;-61
2022/09/17 06:45:05;;;;;;;7.15;1.48;;;11.50;99.90;;;;;;5115190;27;36300;-60
2022/09/17 06:47:33;;;;;;;10.50;2.22;;;11.50;99.90;;;;;;5114740;27;36782;-60
2022/09/17 06:50:01;;;;;;;10.32;1.60;;;11.50;99.90;;;;;;5112213;27;36734;-60
2022/09/17 06:52:28;;;;;;;9.60;2.45;;;11.50;99.90;;;;;;5114734;27;38560;-60
2022/09/17 06:54:56;;;;;;;10.45;1.67;;;11.50;99.90;;;;;;5114227;27;37334;-60
2022/09/17 06:57:23;;;;;;;11.60;1.95;;;11.50;99.90;;;;;;5114438;27;39423;-60
2022/09/17 06:59:50;;;;;;;9.00;2.22;;;11.50;99.90;;;;;;5114742;27;37803;-60
2022/09/17 07:02:18;;;;;;;9.93;1.52;;;11.60;99.90;;;;;;5114303;27;36562;-60
2022/09/17 07:04:46;;;;;;;9.20;2.10;;;11.60;99.90;;;;;;5113938;27;37644;-61
2022/09/17 07:07:14;;;;;;;11.18;1.63;;;11.70;99.90;;;;;;5114244;27;38306;-60
2022/09/17 07:09:41;;;;;;;8.68;1.73;;;11.90;99.90;;;;;;5114986;27;38719;-61
2022/09/17 07:12:09;;;;;;;16.55;2.03;;;12.00;99.90;;;;;;5114757;27;37603;-61
2022/09/17 07:14:36;;;;;;;8.90;1.60;;;12.10;99.90;;;;;;5114423;27;37434;-60
2022/09/17 07:17:03;;;;;;;16.95;2.33;;;12.20;99.90;;;;;;5113944;27;38069;-60
2022/09/17 07:19:31;;;;;;;7.40;1.23;;;12.20;99.90;;;;;;5113293;27;37621;-61
2022/09/17 07:21:59;;;;;;;8.38;1.75;;;12.20;99.90;;;;;;5114667;27;38395;-60
2022/09/17 07:24:27;;;;;;;8.52;1.85;;;12.20;99.90;;;;;;5113326;27;37909;-60
2022/09/17 07:26:54;;;;;;;8.02;1.10;;;12.30;99.90;;;;;;5113931;27;38204;-61
2022/09/17 07:29:25;;;;;;;13.45;2.60;;;12.30;99.90;;;;;;5114626;27;36557;-61
2022/09/17 07:31:52;;;;;;;11.48;1.40;;;12.30;99.90;;;;;;5113624;27;36731;-61
2022/09/17 07:34:20;;;;;;;12.00;1.42;;;12.40;99.90;;;;;;5112693;27;37958;-61
2022/09/17 07:36:47;;;;;;;5.05;0.90;;;12.40;99.90;;;;;;5113048;27;36812;-61
2022/09/17 07:39:16;;;;;;;11.48;1.38;;;12.50;99.90;;;;;;5114165;27;38132;-60
2022/09/17 07:41:43;;;;;;;8.27;1.20;;;12.50;99.90;;;;;;5113437;27;37750;-61
2022/09/17 07:44:10;;;;;;;4.45;1.08;;;12.50;99.90;;;;;;5114129;27;37976;-61
2022/09/17 07:46:37;;;;;;;6.85;1.73;;;12.60;99.90;;;;;;5113216;27;37612;-61
2022/09/17 07:49:05;;;;;;;10.52;1.58;;;12.60;99.90;;;;;;5113412;27;37783;-61
2022/09/17 07:51:32;;;;;;;7.90;1.40;;;12.70;99.90;;;;;;5113971;27;37167;-61
2022/09/17 07:54:01;;;;;;;8.50;1.65;;;12.80;99.90;;;;;;5113681;27;37976;-61
2022/09/17 07:56:29;;;;;;;10.52;1.65;;;12.90;99.90;;;;;;5113076;27;39591;-61
2022/09/17 07:58:57;;;;;;;12.15;1.63;;;13.00;99.90;;;;;;5113389;27;38860;-61
2022/09/17 08:01:26;;;;;;;18.17;3.50;;;13.00;99.90;;;;;;5112734;27;37898;-60
2022/09/17 08:03:54;;;;;;;8.40;1.80;;;13.00;99.90;;;;;;5109569;27;37531;-60
2022/09/17 08:06:24;;;;;;;10.70;1.88;;;12.90;99.90;;;;;;5111754;27;38870;-60
2022/09/17 08:08:52;;;;;;;10.55;2.03;;;12.80;99.90;;;;;;5112575;27;39259;-60
2022/09/17 08:11:21;;;;;;;11.30;1.90;;;12.50;99.90;;;;;;5112635;27;36578;-60
2022/09/17 08:13:51;;;;;;;12.77;2.28;;;12.40;99.90;;;;;;5112781;27;36653;-60
2022/09/17 08:16:18;;;;;;;7.05;1.52;;;12.40;99.90;;;;;;5111724;27;38030;-60
2022/09/17 08:18:46;;;;;;;7.45;1.45;;;12.20;99.90;;;;;;5111315;27;37728;-60
2022/09/17 08:21:17;;;;;;;10.77;1.60;;;12.30;99.90;;;;;;5112457;27;35361;-59
2022/09/17 08:23:45;;;;;;;10.40;2.00;;;12.20;99.90;;;;;;5112222;27;37646;-60
2022/09/17 08:26:14;;;;;;;9.23;2.22;;;12.10;99.90;;;;;;5111487;27;37962;-60
2022/09/17 08:28:44;;;;;;;13.85;1.77;;;12.20;99.90;;;;;;5112969;27;37816;-60
2022/09/17 08:31:14;;;;;;;11.18;2.22;;;12.20;99.90;;;;;;5110414;27;36673;-60
2022/09/17 08:33:42;;;;;;;7.78;1.38;;;12.30;99.90;;;;;;5112635;27;39246;-60
2022/09/17 08:36:12;;;;;;;13.18;1.42;;;12.40;99.90;;;;;;5110892;27;38228;-60
2022/09/17 08:38:40;;;;;;;11.32;2.60;;;12.50;99.90;;;;;;5112256;27;38742;-60
2022/09/17 08:41:23;;;;;;;9.73;2.08;;;12.60;99.90;;;;;;5111697;27;35438;-61
2022/09/17 08:44:01;;;;;;;15.02;1.92;;;12.70;99.90;;;;;;5111611;27;37995;-60
2022/09/17 08:46:32;;;;;;;12.02;1.55;;;12.80;99.90;;;;;;5110662;27;38498;-60
2022/09/17 08:49:07;;;;;;;11.85;1.73;;;12.90;99.90;;;;;;5109825;27;37746;-60
2022/09/17 08:51:42;;;;;;;9.02;2.00;;;12.90;99.90;;;;;;5111075;27;37127;-60
2022/09/17 08:54:15;;;;;;;6.95;1.00;;;12.90;99.90;;;;;;5112484;27;36379;-60
2022/09/17 08:56:45;;;;;;;11.67;1.73;;;12.80;99.90;;;;;;5111486;27;38094;-60
2022/09/17 08:59:23;;;;;;;8.23;0.85;;;12.60;99.90;;;;;;5111418;27;36455;-60
2022/09/17 09:02:00;;;;;;;6.35;0.90;;;12.60;99.90;;;;;;5111054;27;36804;-60
2022/09/17 09:04:58;;;;;;;8.55;1.75;;;12.60;99.90;;;;;;5110815;27;36475;-60
2022/09/17 09:07:29;;;;;;;9.27;1.63;;;12.60;99.90;;;;;;5111088;27;38933;-60
2022/09/17 09:10:06;;;;;;;5.68;1.08;;;12.60;99.90;;;;;;5111555;27;38142;-60
2022/09/17 09:12:36;;;;;;;10.82;2.17;;;12.50;99.90;;;;;;5110900;27;37506;-60
2022/09/17 09:15:07;;;;;;;11.30;1.52;;;12.50;99.90;;;;;;5110526;27;37722;-60
2022/09/17 09:17:42;;;;;;;9.15;1.45;;;12.40;99.90;;;;;;5110467;27;38994;-60
2022/09/17 09:20:16;;;;;;;8.10;1.38;;;12.30;99.90;;;;;;5110112;27;37853;-60
2022/09/17 09:22:48;;;;;;;23.60;3.80;;;12.40;99.90;;;;;;5111482;27;36630;-60
2022/09/17 09:25:21;;;;;;;10.63;1.92;;;12.40;99.90;;;;;;5114743;27;37721;-60
2022/09/17 09:27:56;;;;;;;;;;;12.60;99.90;;;;;;5115041;27;38333;-60
2022/09/17 09:30:24;;;;;;;12.52;1.73;;;12.80;99.90;;;;;;5114200;27;38762;-60
2022/09/17 09:33:00;;;;;;;14.18;1.60;;;12.90;99.90;;;;;;5114959;27;35987;-58
2022/09/17 09:35:29;;;;;;;8.80;1.42;;;12.80;99.90;;;;;;5115214;27;37642;-59
2022/09/17 09:38:02;;;;;;;8.40;1.60;;;12.60;99.90;;;;;;5115182;27;38425;-59
2022/09/17 09:40:37;;;;;;;8.95;2.38;;;12.50;99.90;;;;;;5114335;27;38531;-59
2022/09/17 09:43:16;;;;;;;13.52;1.73;;;12.50;99.90;;;;;;5112943;27;38120;-60
2022/09/17 09:46:17;;;;;;;7.57;1.25;;;12.50;99.90;;;;;;5115957;27;37428;-59
2022/09/17 09:48:59;;;;;;;10.10;2.08;;;12.60;99.90;;;;;;5113777;27;39565;-60
2022/09/17 09:51:38;;;;;;;9.55;2.97;;;12.70;99.90;;;;;;5114982;27;37592;-60
2022/09/17 09:54:17;;;;;;;12.20;1.33;;;12.90;99.90;;;;;;5114210;27;36964;-60
2022/09/17 09:56:55;;;;;;;9.75;1.35;;;13.10;99.90;;;;;;5113812;27;36271;-60
2022/09/17 09:59:22;;;;;;;14.40;2.17;;;13.30;99.90;;;;;;5114912;27;37980;-60
2022/09/17 10:01:49;;;;;;;11.65;1.90;;;13.40;99.90;;;;;;5113892;27;37682;-60
2022/09/17 10:04:21;;;;;;;11.75;2.72;;;13.40;99.90;;;;;;5115114;27;38705;-60
2022/09/17 10:06:51;;;;;;;10.50;1.75;;;13.50;99.90;;;;;;5115337;27;37705;-61
2022/09/17 10:09:21;;;;;;;14.27;2.30;;;13.70;99.90;;;;;;5113878;27;38272;-60
2022/09/17 10:12:03;;;;;;;11.98;2.00;;;13.90;99.90;;;;;;5114172;27;38783;-60
2022/09/17 10:14:31;;;;;;;10.95;1.90;;;14.00;99.90;;;;;;5114316;27;37012;-60
2022/09/17 10:17:21;;;;;;;5.85;1.52;;;14.30;99.90;;;;;;5114286;27;40320;-61
2022/09/17 10:20:15;;;;;;;11.40;1.45;;;14.40;99.90;;;;;;5109828;27;39271;-61
2022/09/17 10:22:43;;;;;;;;;;;14.50;99.90;;;;;;5113661;27;37621;-60
2022/09/17 10:25:28;;;;;;;8.63;1.63;;;14.50;99.90;;;;;;5115588;27;35596;-60
2022/09/17 10:27:57;;;;;;;8.48;1.92;;;14.30;99.90;;;;;;5114962;27;38315;-60
2022/09/17 10:30:24;;;;;;;14.48;1.90;;;14.10;99.90;;;;;;5114082;27;38677;-60
2022/09/17 10:33:23;;;;;;;15.25;2.45;;;13.90;99.90;;;;;;5112628;27;38603;-60
2022/09/17 10:36:13;;;;;;;11.15;1.90;;;13.80;99.90;;;;;;5113413;27;36717;-61
2022/09/17 10:38:42;;;;;;;5.53;1.30;;;13.70;99.90;;;;;;5111005;27;38036;-60
2022/09/17 10:41:13;;;;;;;6.75;1.52;;;13.50;99.90;;;;;;5113639;27;38628;-61
2022/09/17 10:43:41;;;;;;;11.57;2.35;;;13.40;99.90;;;;;;5111957;27;39046;-61
2022/09/17 10:46:12;;;;;;;14.45;1.73;;;13.30;99.90;;;;;;5112821;27;38018;-61
2022/09/17 10:48:43;;;;;;;10.30;1.85;;;13.20;99.90;;;;;;5112510;27;39277;-61
2022/09/17 10:51:20;;;;;;;10.68;1.60;;;13.10;99.90;;;;;;5113378;27;36905;-61
2022/09/17 10:54:07;;;;;;;10.68;1.80;;;13.10;99.90;;;;;;5114311;27;37486;-61
2022/09/17 10:56:36;;;;;;;7.32;1.67;;;13.20;99.90;;;;;;5113998;27;36705;-61
2022/09/17 10:59:21;;;;;;;9.50;1.65;;;13.30;99.90;;;;;;5111809;27;36368;-61
2022/09/17 11:01:59;;;;;;;9.63;1.60;;;13.50;99.90;;;;;;5114619;27;37977;-61
2022/09/17 11:04:34;;;;;;;10.82;1.90;;;13.80;99.90;;;;;;5113606;27;37755;-61
2022/09/17 11:07:32;;;;;;;10.98;1.95;;;14.10;99.90;;;;;;5113592;27;36417;-61
2022/09/17 11:10:08;;;;;;;14.52;2.67;;;14.40;99.90;;;;;;5113353;27;38275;-61
2022/09/17 11:12:44;;;;;;;9.73;2.13;;;14.60;99.90;;;;;;5112236;27;36950;-62
2022/09/17 11:15:30;;;;;;;12.57;2.08;;;14.60;99.90;;;;;;5113945;27;37523;-61
2022/09/17 11:18:28;;;;;;;15.93;2.22;;;14.60;99.90;;;;;;5112472;27;36778;-61
2022/09/17 11:21:13;;;;;;;15.10;2.75;;;14.50;99.90;;;;;;5112782;27;38975;-61
2022/09/17 11:24:13;;;;;;;9.90;1.40;;;14.40;99.90;;;;;;5113522;27;38137;-61
2022/09/17 11:26:49;;;;;;;11.38;2.25;;;14.30;99.90;;;;;;5087816;27;37750;-60
2022/09/17 11:29:42;;;;;;;8.93;1.77;;;14.20;99.90;;;;;;5112512;27;37119;-61
2022/09/17 11:32:23;;;;;;;9.57;1.55;;;14.10;99.90;;;;;;5112688;27;38301;-60
2022/09/17 11:34:58;;;;;;;10.85;2.00;;;14.20;99.90;;;;;;5113593;27;38734;-61
2022/09/17 11:37:30;;;;;;;14.85;2.63;;;14.30;99.90;;;;;;5112826;27;39538;-61
2022/09/17 11:40:02;;;;;;;11.00;2.20;;;14.30;99.90;;;;;;5112755;27;36367;-61
2022/09/17 11:42:33;;;;;;;10.75;1.95;;;14.30;99.90;;;;;;5112494;27;38217;-61
2022/09/17 11:45:05;;;;;;;10.00;2.13;;;14.30;99.90;;;;;;5113055;27;36826;-60
2022/09/17 11:47:36;;;;;;;9.00;2.20;;;14.50;99.90;;;;;;5111985;27;36623;-61
2022/09/17 11:50:15;;;;;;;12.10;2.60;;;14.70;99.90;;;;;;5113061;27;39553;-61
2022/09/17 11:52:47;;;;;;;13.88;2.33;;;14.80;99.90;;;;;;5112534;27;38006;-61
2022/09/17 11:55:21;;;;;;;10.10;2.55;;;14.80;99.90;;;;;;5110842;27;38023;-60
2022/09/17 11:57:52;;;;;;;9.98;1.92;;;14.80;99.90;;;;;;5112975;27;37623;-61
2022/09/17 12:00:22;;;;;;;13.45;2.22;;;14.70;99.90;;;;;;5112299;27;35492;-60
2022/09/17 12:02:54;;;;;;;13.90;2.05;;;14.70;99.90;;;;;;5111986;27;39091;-60
2022/09/17 12:05:24;;;;;;;15.80;4.65;;;14.80;99.90;;;;;;5112652;27;38474;-61
2022/09/17 12:07:56;;;;;;;11.73;2.90;;;14.90;99.90;;;;;;5112250;27;38748;-61
2022/09/17 12:10:40;;;;;;;14.77;1.95;;;15.00;99.90;;;;;;5111775;27;38331;-61
2022/09/17 12:13:14;;;;;;;;;;;15.00;99.90;;;;;;5112097;27;38777;-61
2022/09/17 12:15:46;;;;;;;15.45;2.85;;;15.10;99.60;;;;;;5111971;27;39199;-61
2022/09/17 12:18:23;;;;;;;10.05;2.30;;;15.10;99.90;;;;;;5111357;27;38481;-61
2022/09/17 12:20:54;;;;;;;10.00;1.63;;;15.20;99.60;;;;;;5111007;27;37731;-60
2022/09/17 12:23:31;;;;;;;9.88;1.63;;;15.30;98.90;;;;;;5113320;27;37218;-60
2022/09/17 12:26:07;;;;;;;9.98;1.90;;;15.40;97.70;;;;;;5111988;27;37005;-61
2022/09/17 12:28:42;;;;;;;11.80;2.75;;;15.40;96.80;;;;;;5111584;27;38029;-61
2022/09/17 12:31:16;;;;;;;9.93;1.85;;;15.40;96.40;;;;;;5110955;27;38107;-60
2022/09/17 12:33:46;;;;;;;;;;;15.40;96.00;;;;;;5112220;27;37631;-61
2022/09/17 12:36:32;;;;;;;12.43;2.20;;;15.40;95.90;;;;;;5112192;27;38340;-61
2022/09/17 12:39:20;;;;;;;9.18;2.00;;;15.50;96.00;;;;;;5110867;27;38039;-61
2022/09/17 12:41:58;;;;;;;12.18;1.70;;;15.50;95.70;;;;;;5112050;27;36607;-61
2022/09/17 12:45:00;;;;;;;9.77;1.85;;;15.60;95.80;;;;;;5110947;27;37412;-60
2022/09/17 12:47:56;;;;;;;12.52;2.15;;;15.60;95.80;;;;;;5111293;27;38466;-60
2022/09/17 12:50:35;;;;;;;14.30;2.03;;;15.60;95.50;;;;;;5111419;27;39192;-60
2022/09/17 12:53:19;;;;;;;13.38;2.50;;;15.60;95.70;;;;;;5111124;27;36647;-60
2022/09/17 12:56:09;;;;;;;13.68;2.47;;;15.50;96.00;;;;;;5112771;27;36331;-60
2022/09/17 12:59:01;;;;;;;14.95;2.22;;;15.40;95.80;;;;;;5110602;27;37956;-60
2022/09/17 13:01:35;;;;;;;10.70;2.20;;;15.40;95.90;;;;;;5112645;27;40290;-59
2022/09/17 13:04:14;;;;;;;15.07;2.97;;;15.40;95.70;;;;;;5111576;27;36818;-60
2022/09/17 13:07:11;;;;;;;9.20;2.10;;;15.40;95.00;;;;;;5111495;27;36362;-60